Time;durP1;ratioP1;P1;durP2;ratioP2;P2;SDS_P1;SDS_P2;PMS_P1;PMS_P2;Temp;Humidity;BMP_temperature;BMP_pressure;BME280_temperature;BME280_humidity;BME280_pressure;Samples;Min_cycle;Max_cycle;Signal;HPM_P1;HPM_P2
2022/01/10 00:02:12;;;;;;;26.85;15.70;;;4.00;99.90;;;;;;5053167;28;20131;-56
2022/01/10 00:04:37;;;;;;;24.20;14.20;;;4.00;99.90;;;;;;5053302;28;20112;-51
2022/01/10 00:07:03;;;;;;;24.98;14.82;;;3.90;99.90;;;;;;5052957;28;20096;-60
2022/01/10 00:09:29;;;;;;;29.33;15.88;;;3.90;99.90;;;;;;5052825;28;20072;-56
2022/01/10 00:11:55;;;;;;;23.63;14.13;;;3.90;99.90;;;;;;5052617;28;20105;-45
2022/01/10 00:14:21;;;;;;;27.92;17.00;;;3.90;99.90;;;;;;5052943;28;20070;-48
2022/01/10 00:16:46;;;;;;;20.65;12.25;;;3.90;99.90;;;;;;5052785;28;20029;-48
2022/01/10 00:19:12;;;;;;;22.98;13.48;;;3.90;99.90;;;;;;5054738;28;20129;-59
2022/01/10 00:21:38;;;;;;;20.95;13.73;;;3.90;99.90;;;;;;5056688;28;20025;-58
2022/01/10 00:24:04;;;;;;;28.95;15.85;;;3.90;99.90;;;;;;5056793;28;20028;-49
2022/01/10 00:26:30;;;;;;;23.00;13.63;;;3.90;99.90;;;;;;5056341;28;20063;-60
2022/01/10 00:28:55;;;;;;;20.80;12.40;;;3.80;99.90;;;;;;5056679;28;20056;-62
2022/01/10 00:31:21;;;;;;;25.77;14.77;;;3.80;99.90;;;;;;5056437;28;20029;-56
2022/01/10 00:33:47;;;;;;;21.20;12.55;;;3.90;99.90;;;;;;5056682;28;20029;-54
2022/01/10 00:36:13;;;;;;;24.73;14.85;;;3.90;99.90;;;;;;5056051;28;20406;-58
2022/01/10 00:38:38;;;;;;;20.40;12.30;;;3.90;99.90;;;;;;5056691;28;20017;-61
2022/01/10 00:41:04;;;;;;;20.48;12.07;;;3.90;99.90;;;;;;5056308;28;20028;-56
2022/01/10 00:43:32;;;;;;;21.58;13.07;;;3.90;99.90;;;;;;5056485;28;20109;-59
2022/01/10 00:45:59;;;;;;;21.63;13.55;;;3.90;99.90;;;;;;5056263;28;20017;-57
2022/01/10 00:48:25;;;;;;;17.77;12.10;;;3.90;99.90;;;;;;5056117;28;20038;-60
2022/01/10 00:50:50;;;;;;;20.23;11.30;;;3.90;99.90;;;;;;5056405;28;20108;-58
2022/01/10 00:53:16;;;;;;;22.48;13.40;;;4.00;99.90;;;;;;5056243;28;20379;-51
2022/01/10 00:55:42;;;;;;;27.38;15.63;;;4.00;99.90;;;;;;5055708;28;20083;-54
2022/01/10 00:58:08;;;;;;;23.20;14.43;;;4.00;99.90;;;;;;5055944;28;20501;-57
2022/01/10 01:00:33;;;;;;;24.58;14.65;;;3.90;99.90;;;;;;5056106;28;20021;-63
2022/01/10 01:02:59;;;;;;;23.00;13.68;;;3.90;99.90;;;;;;5056068;28;20483;-53
2022/01/10 01:05:26;;;;;;;20.08;11.88;;;3.90;99.90;;;;;;5055771;28;20028;-60
2022/01/10 01:07:52;;;;;;;21.98;11.60;;;3.80;99.90;;;;;;5055730;28;20486;-54
2022/01/10 01:15:56;;;;;;;22.63;13.13;;;3.70;99.90;;;;;;5056022;28;20104;-54
2022/01/10 01:18:59;;;;;;;23.23;13.77;;;3.70;99.90;;;;;;5055719;28;20040;-56
2022/01/10 01:24:04;;;;;;;23.27;13.32;;;3.70;99.90;;;;;;5055687;28;20032;-59
2022/01/10 01:26:32;;;;;;;24.50;14.30;;;3.60;99.90;;;;;;5055442;28;20112;-52
2022/01/10 01:28:58;;;;;;;33.25;18.15;;;3.60;99.90;;;;;;5055350;28;20025;-58
2022/01/10 01:31:24;;;;;;;26.80;14.88;;;3.60;99.90;;;;;;5055639;28;20532;-57
2022/01/10 01:33:50;;;;;;;22.77;12.63;;;3.60;99.90;;;;;;5055250;28;20545;-54
2022/01/10 01:36:21;;;;;;;25.92;13.95;;;3.60;99.90;;;;;;5054956;28;20045;-60
2022/01/10 01:38:47;;;;;;;19.67;11.50;;;3.70;99.90;;;;;;5055402;28;20029;-52
2022/01/10 01:42:01;;;;;;;21.27;12.63;;;3.70;99.90;;;;;;5055066;28;20467;-58
2022/01/10 01:43:59;;;;;;;22.30;13.15;;;3.70;99.90;;;;;;5054623;28;20029;-54
2022/01/10 01:46:26;;;;;;;24.15;13.05;;;3.70;99.90;;;;;;5054971;28;20032;-51
2022/01/10 01:48:53;;;;;;;27.98;15.65;;;3.70;99.90;;;;;;5055057;28;20037;-51
2022/01/10 01:51:19;;;;;;;25.80;14.18;;;3.70;99.90;;;;;;5055350;28;20103;-62
2022/01/10 01:53:46;;;;;;;21.50;13.23;;;3.70;99.90;;;;;;5054986;28;20021;-62
2022/01/10 01:56:13;;;;;;;26.17;15.70;;;3.70;99.90;;;;;;5054984;28;20432;-60
2022/01/10 01:58:41;;;;;;;26.10;14.10;;;3.60;99.90;;;;;;5054827;28;20021;-64
2022/01/10 02:01:08;;;;;;;30.83;15.57;;;3.60;99.90;;;;;;5054725;28;20029;-60
2022/01/10 02:03:37;;;;;;;34.40;18.63;;;3.60;99.90;;;;;;5054751;28;20036;-59
2022/01/10 02:06:03;;;;;;;27.33;13.65;;;3.50;99.90;;;;;;5054876;28;20386;-60
2022/01/10 02:08:29;;;;;;;23.38;14.60;;;3.40;99.90;;;;;;5054433;28;20028;-60
2022/01/10 02:10:55;;;;;;;24.77;13.35;;;3.40;99.90;;;;;;5054895;28;20025;-61
2022/01/10 02:13:21;;;;;;;24.65;13.85;;;3.50;99.90;;;;;;5054585;28;20055;-53
2022/01/10 02:15:58;;;;;;;18.95;11.60;;;3.40;99.90;;;;;;5054465;28;20021;-53
2022/01/10 02:18:24;;;;;;;34.55;17.60;;;3.50;99.90;;;;;;5054620;28;20044;-60
2022/01/10 02:20:51;;;;;;;27.33;14.45;;;3.50;99.90;;;;;;5054177;28;20021;-59
2022/01/10 02:23:17;;;;;;;23.13;12.40;;;3.50;99.90;;;;;;5054300;28;20485;-61
2022/01/10 02:25:45;;;;;;;19.98;11.43;;;3.50;99.90;;;;;;5054319;28;20025;-57
2022/01/10 02:28:11;;;;;;;21.30;11.82;;;3.50;99.90;;;;;;5054272;28;20051;-63
2022/01/10 02:30:37;;;;;;;21.05;12.35;;;3.60;99.90;;;;;;5054202;28;20021;-50
2022/01/10 02:33:04;;;;;;;25.42;14.18;;;3.50;99.90;;;;;;5054213;28;20027;-55
2022/01/10 02:35:40;;;;;;;25.63;11.98;;;3.50;99.90;;;;;;5053733;28;20051;-58
2022/01/10 02:38:07;;;;;;;23.40;13.73;;;3.40;99.90;;;;;;5053922;28;20040;-51
2022/01/10 02:40:33;;;;;;;28.40;16.02;;;3.40;99.90;;;;;;5053915;28;20025;-53
2022/01/10 02:42:59;;;;;;;21.45;11.85;;;3.40;99.90;;;;;;5053710;28;20413;-64
2022/01/10 02:45:25;;;;;;;21.95;11.30;;;3.30;99.90;;;;;;5053918;28;20024;-54
2022/01/10 02:47:52;;;;;;;20.40;11.05;;;3.40;99.90;;;;;;5053894;28;20060;-53
2022/01/10 02:50:20;;;;;;;18.77;10.48;;;3.40;99.90;;;;;;5054004;28;20049;-52
2022/01/10 02:52:47;;;;;;;25.27;13.43;;;3.40;99.90;;;;;;5053770;28;20545;-62
2022/01/10 02:55:13;;;;;;;23.58;14.02;;;3.40;99.90;;;;;;5054094;28;20382;-60
2022/01/10 02:57:40;;;;;;;23.35;12.70;;;3.40;99.90;;;;;;5053720;28;20475;-57
2022/01/10 03:00:27;;;;;;;29.23;15.50;;;3.30;99.90;;;;;;5053636;28;20021;-54
2022/01/10 03:02:54;;;;;;;24.23;13.15;;;3.30;99.90;;;;;;5053962;28;20052;-58
2022/01/10 03:05:23;;;;;;;24.13;12.35;;;3.20;99.90;;;;;;5053385;28;20051;-50
2022/01/10 03:07:51;;;;;;;18.63;11.05;;;3.10;99.90;;;;;;5054084;28;20151;-51
2022/01/10 03:10:16;;;;;;;20.45;10.25;;;3.10;99.90;;;;;;5053662;28;20518;-56
2022/01/10 03:12:43;;;;;;;23.83;12.70;;;3.20;99.90;;;;;;5053376;28;20061;-53
2022/01/10 03:15:10;;;;;;;24.02;12.20;;;3.20;99.90;;;;;;5053609;28;20056;-49
2022/01/10 03:17:37;;;;;;;14.23;8.02;;;3.20;99.90;;;;;;5053487;28;20029;-60
2022/01/10 03:20:08;;;;;;;16.23;9.52;;;3.30;99.90;;;;;;5053125;28;20025;-63
2022/01/10 03:22:34;;;;;;;19.95;11.73;;;3.30;99.90;;;;;;5053370;28;20050;-56
2022/01/10 03:25:00;;;;;;;19.25;11.18;;;3.30;99.90;;;;;;5053628;28;20028;-47
2022/01/10 03:27:26;;;;;;;17.67;9.85;;;3.20;99.90;;;;;;5053210;28;20029;-47
2022/01/10 03:29:53;;;;;;;15.80;9.60;;;3.30;99.90;;;;;;5053416;28;20036;-54
2022/01/10 03:32:18;;;;;;;14.88;9.40;;;3.30;99.90;;;;;;5053532;28;20388;-47
2022/01/10 03:34:44;;;;;;;16.05;8.85;;;3.30;99.90;;;;;;5052943;28;20022;-52
2022/01/10 03:37:10;;;;;;;18.42;10.48;;;3.40;99.90;;;;;;5052817;28;20049;-47
2022/01/10 03:39:36;;;;;;;15.63;9.20;;;3.50;99.90;;;;;;5053281;28;20032;-57
2022/01/10 03:42:02;;;;;;;13.35;8.13;;;3.40;99.90;;;;;;5053383;28;20029;-59
2022/01/10 03:44:28;;;;;;;13.63;8.13;;;3.30;99.90;;;;;;5053049;28;20017;-54
2022/01/10 03:46:54;;;;;;;14.57;8.07;;;3.30;99.90;;;;;;5053294;28;20031;-54
2022/01/10 03:49:19;;;;;;;10.85;7.03;;;3.40;99.90;;;;;;5052839;28;20060;-57
2022/01/10 03:51:45;;;;;;;13.52;7.93;;;3.40;99.90;;;;;;5053000;28;20025;-48
2022/01/10 03:54:11;;;;;;;14.63;8.50;;;3.40;99.90;;;;;;5056872;28;20025;-55
2022/01/10 03:56:37;;;;;;;18.08;10.13;;;3.40;99.90;;;;;;5057389;28;20033;-45
2022/01/10 03:59:04;;;;;;;14.85;8.82;;;3.40;99.90;;;;;;5057339;28;20021;-51
2022/01/10 04:01:31;;;;;;;14.15;7.95;;;3.40;99.90;;;;;;5057497;28;20021;-47
2022/01/10 04:03:57;;;;;;;14.07;7.57;;;3.40;99.90;;;;;;5056901;28;20025;-57
2022/01/10 04:06:23;;;;;;;19.85;11.27;;;3.40;99.90;;;;;;5057194;28;20028;-53
2022/01/10 04:08:48;;;;;;;14.98;8.57;;;3.20;99.90;;;;;;5057124;28;20021;-48
2022/01/10 04:11:14;;;;;;;14.48;7.97;;;3.10;99.90;;;;;;5056865;28;20043;-60
2022/01/10 04:13:40;;;;;;;14.20;8.23;;;3.20;99.90;;;;;;5057100;28;20463;-53
2022/01/10 04:16:06;;;;;;;11.65;6.13;;;3.30;99.90;;;;;;5056862;28;20114;-54
2022/01/10 04:18:33;;;;;;;13.75;7.78;;;3.30;99.90;;;;;;5056842;28;20382;-60
2022/01/10 04:20:59;;;;;;;11.88;6.82;;;3.30;99.90;;;;;;5056688;28;20025;-54
2022/01/10 04:23:25;;;;;;;13.18;7.88;;;3.30;99.90;;;;;;5056611;28;20024;-56
2022/01/10 04:25:50;;;;;;;12.10;7.30;;;3.30;99.90;;;;;;5056664;28;20013;-51
2022/01/10 04:28:16;;;;;;;19.00;10.10;;;3.30;99.90;;;;;;5056647;28;20024;-54
2022/01/10 04:30:42;;;;;;;14.38;8.35;;;3.30;99.90;;;;;;5056420;28;20501;-53
2022/01/10 04:33:10;;;;;;;15.65;9.25;;;3.30;99.90;;;;;;5056301;28;20555;-53
2022/01/10 04:35:35;;;;;;;14.30;7.93;;;3.30;99.90;;;;;;5056310;28;20079;-47
2022/01/10 04:38:02;;;;;;;16.13;9.45;;;3.40;99.90;;;;;;5056278;28;20061;-55
2022/01/10 04:40:28;;;;;;;13.20;7.85;;;3.40;99.90;;;;;;5056437;28;20083;-52
2022/01/10 04:42:54;;;;;;;16.27;9.43;;;3.40;99.90;;;;;;5056659;28;20368;-50
2022/01/10 04:45:20;;;;;;;13.45;8.73;;;3.40;99.90;;;;;;5056167;28;20059;-53
2022/01/10 04:47:46;;;;;;;16.30;8.93;;;3.40;99.90;;;;;;5056034;28;20025;-56
2022/01/10 04:52:48;;;;;;;17.50;9.43;;;3.30;99.90;;;;;;5056407;28;20028;-51
2022/01/10 04:55:14;;;;;;;17.40;9.20;;;3.30;99.90;;;;;;5056096;28;20021;-56
2022/01/10 04:57:40;;;;;;;24.83;13.43;;;3.40;99.90;;;;;;5055975;28;20068;-57
2022/01/10 05:00:10;;;;;;;19.67;10.23;;;3.30;99.90;;;;;;5056209;28;20435;-54
2022/01/10 05:02:36;;;;;;;18.85;10.52;;;3.30;99.90;;;;;;5055758;28;20490;-58
2022/01/10 05:05:03;;;;;;;16.48;9.25;;;3.30;99.90;;;;;;5055217;28;20025;-62
2022/01/10 05:07:29;;;;;;;20.20;10.32;;;3.30;99.90;;;;;;5055799;28;20025;-57
2022/01/10 05:09:57;;;;;;;24.35;12.82;;;3.30;99.90;;;;;;5056103;28;20028;-64
2022/01/10 05:12:24;;;;;;;18.92;9.63;;;3.30;99.90;;;;;;5055852;28;20456;-54
2022/01/10 05:14:50;;;;;;;23.25;11.63;;;3.30;99.90;;;;;;5055462;28;20463;-54
2022/01/10 05:17:18;;;;;;;18.63;10.68;;;3.30;99.90;;;;;;5055566;28;20029;-61
2022/01/10 05:19:44;;;;;;;20.08;10.38;;;3.30;99.90;;;;;;5055866;28;20025;-60
2022/01/10 05:22:10;;;;;;;18.33;9.25;;;3.20;99.90;;;;;;5055546;28;20490;-53
2022/01/10 05:24:35;;;;;;;16.92;9.68;;;3.20;99.90;;;;;;5056017;28;20033;-54
2022/01/10 05:27:01;;;;;;;17.13;9.07;;;3.20;99.90;;;;;;5055403;28;20052;-50
2022/01/10 05:29:27;;;;;;;21.55;11.52;;;3.20;99.90;;;;;;5055148;28;20021;-52
2022/01/10 05:31:53;;;;;;;25.05;12.57;;;3.30;99.90;;;;;;5055463;28;20017;-64
2022/01/10 05:34:19;;;;;;;24.10;11.70;;;3.30;99.90;;;;;;5055341;28;20017;-57
2022/01/10 05:36:44;;;;;;;24.85;12.07;;;3.20;99.90;;;;;;5053678;28;20049;-53
2022/01/10 05:39:10;;;;;;;22.50;12.27;;;3.20;99.90;;;;;;5054917;28;20021;-54
2022/01/10 05:41:36;;;;;;;20.13;10.30;;;3.20;99.90;;;;;;5054960;28;20096;-53
2022/01/10 05:44:03;;;;;;;23.45;11.88;;;3.30;99.90;;;;;;5054734;28;20052;-53
2022/01/10 05:46:29;;;;;;;23.02;11.25;;;3.30;99.90;;;;;;5055126;28;20083;-57
2022/01/10 05:49:00;;;;;;;26.88;13.75;;;3.30;99.90;;;;;;5054861;28;20055;-60
2022/01/10 05:51:33;;;;;;;23.35;12.45;;;3.30;99.90;;;;;;5054860;28;20025;-59
2022/01/10 05:53:59;;;;;;;28.50;14.10;;;3.30;99.90;;;;;;5055091;28;20443;-66
2022/01/10 05:56:25;;;;;;;24.17;11.85;;;3.20;99.90;;;;;;5054786;28;20398;-57
2022/01/10 05:58:50;;;;;;;18.75;9.90;;;3.10;99.90;;;;;;5054352;28;20028;-57
2022/01/10 06:01:16;;;;;;;20.00;11.73;;;3.00;99.90;;;;;;5054448;28;20025;-63
2022/01/10 06:03:42;;;;;;;22.92;12.35;;;3.10;99.90;;;;;;5054878;28;20036;-59
2022/01/10 06:06:07;;;;;;;18.67;10.20;;;3.20;99.90;;;;;;5054553;28;20112;-60
2022/01/10 06:08:33;;;;;;;24.10;13.65;;;3.20;99.90;;;;;;5054670;28;20025;-61
2022/01/10 06:10:59;;;;;;;18.45;10.65;;;3.20;99.90;;;;;;5054467;28;20092;-62
2022/01/10 06:13:25;;;;;;;26.15;13.35;;;3.20;99.90;;;;;;5054342;28;20550;-59
2022/01/10 06:15:51;;;;;;;16.73;9.23;;;3.20;99.90;;;;;;5046506;28;20422;-53
2022/01/10 06:18:18;;;;;;;19.98;9.52;;;3.10;99.90;;;;;;5041934;28;20053;-56
2022/01/10 06:20:43;;;;;;;14.88;9.45;;;3.20;99.90;;;;;;5044444;28;20079;-59
2022/01/10 06:23:11;;;;;;;17.35;9.40;;;3.10;99.40;;;;;;5042513;28;20029;-63
2022/01/10 06:25:39;;;;;;;22.95;12.60;;;3.10;99.90;;;;;;5050416;28;20474;-60
2022/01/10 06:28:05;;;;;;;25.38;13.52;;;3.10;99.90;;;;;;5053986;28;20025;-49
2022/01/10 06:30:31;;;;;;;20.02;10.98;;;3.10;99.90;;;;;;5053970;28;20423;-62
2022/01/10 06:32:57;;;;;;;20.33;10.40;;;3.20;99.90;;;;;;5053042;28;20064;-55
2022/01/10 06:35:23;;;;;;;19.88;10.48;;;3.20;99.90;;;;;;5053611;28;20031;-61
2022/01/10 06:37:49;;;;;;;17.23;9.43;;;3.30;99.90;;;;;;5053971;28;20399;-54
2022/01/10 06:40:16;;;;;;;18.67;9.48;;;3.30;99.90;;;;;;5053209;28;20032;-48
2022/01/10 06:42:42;;;;;;;18.80;9.77;;;3.30;99.90;;;;;;5052156;28;20016;-55
2022/01/10 06:45:09;;;;;;;17.13;9.02;;;3.30;98.90;;;;;;5051809;28;20529;-55
2022/01/10 06:47:35;;;;;;;19.92;10.93;;;3.30;98.20;;;;;;5052124;28;20043;-64
2022/01/10 06:50:01;;;;;;;14.85;9.88;;;3.30;99.60;;;;;;5052783;28;20025;-58
2022/01/10 06:52:27;;;;;;;16.92;10.02;;;3.30;99.20;;;;;;5053107;28;20024;-60
2022/01/10 06:54:53;;;;;;;22.15;13.15;;;3.30;99.60;;;;;;5052995;28;20024;-58
2022/01/10 06:57:18;;;;;;;19.05;11.55;;;3.20;99.80;;;;;;5051668;28;20029;-55
2022/01/10 06:59:44;;;;;;;21.80;12.18;;;3.30;99.50;;;;;;5051120;28;20029;-67
2022/01/10 07:02:10;;;;;;;19.92;11.60;;;3.30;99.50;;;;;;5053384;28;20021;-55
2022/01/10 07:04:36;;;;;;;28.10;15.15;;;3.30;99.30;;;;;;5053557;28;20032;-57
2022/01/10 07:07:02;;;;;;;28.23;14.52;;;3.30;99.70;;;;;;5053017;28;20037;-50
2022/01/10 07:09:28;;;;;;;24.75;15.27;;;3.30;99.90;;;;;;5051881;28;20028;-58
2022/01/10 07:11:54;;;;;;;21.50;12.38;;;3.20;99.90;;;;;;5050525;28;20021;-48
2022/01/10 07:14:20;;;;;;;24.15;13.38;;;3.20;99.90;;;;;;5049636;28;20426;-54
2022/01/10 07:16:48;;;;;;;19.20;10.90;;;3.20;99.90;;;;;;5049055;28;20029;-51
2022/01/10 07:19:14;;;;;;;19.80;12.30;;;3.20;99.90;;;;;;5050303;28;20049;-61
2022/01/10 07:21:41;;;;;;;17.23;10.13;;;3.30;99.90;;;;;;5051149;28;20111;-61
2022/01/10 07:24:07;;;;;;;25.10;13.40;;;3.20;99.90;;;;;;5051231;28;20414;-58
2022/01/10 07:26:33;;;;;;;18.30;10.82;;;3.20;99.90;;;;;;5051168;28;20438;-51
2022/01/10 07:29:02;;;;;;;19.98;11.80;;;3.10;99.90;;;;;;5050256;28;20484;-57
2022/01/10 07:31:29;;;;;;;21.02;11.23;;;3.10;99.90;;;;;;5051446;28;20100;-56
2022/01/10 07:33:56;;;;;;;22.60;12.55;;;3.10;99.90;;;;;;5051223;28;20702;-60
2022/01/10 07:36:22;;;;;;;20.52;11.57;;;3.20;99.90;;;;;;5051397;28;20091;-51
2022/01/10 07:38:49;;;;;;;21.48;12.95;;;3.20;99.90;;;;;;5051371;28;20052;-64
2022/01/10 07:41:15;;;;;;;28.70;16.08;;;3.20;99.90;;;;;;5047895;28;20021;-60
2022/01/10 07:43:41;;;;;;;26.58;15.65;;;3.20;99.90;;;;;;5035435;28;20044;-64
2022/01/10 07:46:11;;;;;;;19.35;11.68;;;3.10;99.90;;;;;;5040099;28;20048;-61
2022/01/10 07:48:40;;;;;;;21.25;12.50;;;3.00;99.90;;;;;;5037661;28;20029;-63
2022/01/10 07:51:09;;;;;;;21.45;12.73;;;3.10;99.90;;;;;;5041406;28;20067;-56
2022/01/10 07:53:40;;;;;;;25.20;14.48;;;3.00;99.50;;;;;;5039809;28;20080;-49
2022/01/10 07:56:06;;;;;;;21.77;12.88;;;3.00;99.80;;;;;;5028302;28;20439;-57
2022/01/10 07:58:33;;;;;;;18.40;10.73;;;2.90;99.90;;;;;;5029294;28;20048;-52
2022/01/10 08:00:59;;;;;;;18.80;10.57;;;3.00;99.80;;;;;;5030183;28;20761;-66
2022/01/10 08:03:26;;;;;;;17.08;10.60;;;2.90;98.90;;;;;;5031006;28;20028;-63
2022/01/10 08:05:52;;;;;;;18.13;11.55;;;2.90;97.70;;;;;;5033044;28;20068;-58
2022/01/10 08:08:18;;;;;;;21.08;12.18;;;3.00;98.40;;;;;;5033436;28;20025;-58
2022/01/10 08:10:44;;;;;;;17.38;10.38;;;3.00;98.30;;;;;;5031940;28;20076;-57
2022/01/10 08:13:10;;;;;;;24.35;14.40;;;2.90;98.80;;;;;;5033060;28;20486;-62
2022/01/10 08:15:40;;;;;;;19.10;11.30;;;3.00;98.50;;;;;;5040949;28;20036;-63
2022/01/10 08:18:07;;;;;;;18.98;11.38;;;2.80;99.90;;;;;;5036648;28;20139;-60
2022/01/10 08:20:33;;;;;;;18.25;11.95;;;2.90;99.60;;;;;;5045518;28;20068;-56
2022/01/10 08:22:59;;;;;;;18.88;11.88;;;3.00;98.30;;;;;;5052791;28;20096;-62
2022/01/10 08:25:25;;;;;;;18.02;10.70;;;3.00;99.30;;;;;;5051268;28;20538;-58
2022/01/10 08:27:52;;;;;;;17.33;11.10;;;3.00;99.40;;;;;;5052765;28;20048;-61
2022/01/10 08:30:18;;;;;;;18.63;11.02;;;2.90;99.90;;;;;;5051065;28;20032;-59
2022/01/10 08:32:46;;;;;;;20.88;11.82;;;2.80;99.90;;;;;;5052656;28;20121;-55
2022/01/10 08:35:12;;;;;;;24.95;12.95;;;2.80;99.90;;;;;;5051271;28;20537;-56
2022/01/10 08:37:38;;;;;;;24.52;13.70;;;2.60;99.90;;;;;;5052229;28;20092;-68
2022/01/10 08:40:05;;;;;;;27.83;15.23;;;2.50;99.90;;;;;;5054366;28;20063;-56
2022/01/10 08:42:31;;;;;;;22.95;13.27;;;2.50;99.90;;;;;;5056493;28;20024;-63
2022/01/10 08:44:57;;;;;;;20.55;11.52;;;2.40;99.90;;;;;;5056283;28;20025;-63
2022/01/10 08:47:23;;;;;;;14.98;9.60;;;2.40;99.90;;;;;;5056282;28;20028;-56
2022/01/10 08:49:49;;;;;;;23.13;14.55;;;2.40;99.90;;;;;;5055674;28;20508;-60
2022/01/10 08:52:16;;;;;;;19.60;10.93;;;2.60;99.90;;;;;;5054610;28;20025;-68
2022/01/10 08:54:42;;;;;;;14.45;9.27;;;2.70;99.90;;;;;;5056226;28;20040;-51
2022/01/10 08:57:08;;;;;;;16.73;9.15;;;2.80;99.90;;;;;;5056099;28;20025;-63
2022/01/10 08:59:34;;;;;;;16.52;9.55;;;2.90;99.90;;;;;;5055520;28;20021;-57
2022/01/10 09:02:00;;;;;;;21.83;12.32;;;3.00;99.90;;;;;;5055766;28;20083;-53
2022/01/10 09:04:26;;;;;;;21.15;11.95;;;2.90;99.90;;;;;;5056141;28;20055;-66
2022/01/10 09:06:55;;;;;;;21.42;12.55;;;2.80;99.90;;;;;;5055463;28;20025;-53
2022/01/10 09:09:22;;;;;;;19.88;12.40;;;2.90;99.90;;;;;;5055840;28;20025;-61
2022/01/10 09:11:49;;;;;;;26.05;13.75;;;2.80;99.90;;;;;;5045033;28;20018;-60
2022/01/10 09:14:15;;;;;;;34.72;18.95;;;2.70;99.90;;;;;;5045403;28;20056;-58
2022/01/10 09:16:45;;;;;;;32.17;18.55;;;2.70;99.90;;;;;;5055988;28;20033;-56
2022/01/10 09:19:11;;;;;;;20.88;13.23;;;2.70;99.90;;;;;;5055816;28;20021;-64
2022/01/10 09:21:37;;;;;;;24.70;14.35;;;2.80;99.90;;;;;;5054700;28;20025;-64
2022/01/10 09:24:03;;;;;;;19.58;11.77;;;2.80;99.90;;;;;;5053887;28;20118;-53
2022/01/10 09:26:29;;;;;;;19.75;11.82;;;2.90;99.90;;;;;;5053801;28;20028;-57
2022/01/10 09:28:55;;;;;;;15.65;10.43;;;3.00;99.90;;;;;;5055632;28;20032;-63
2022/01/10 09:31:22;;;;;;;27.70;13.77;;;3.20;99.90;;;;;;5055341;28;20092;-65
2022/01/10 09:33:54;;;;;;;21.55;13.00;;;3.20;99.90;;;;;;5054586;28;20111;-60
2022/01/10 09:36:22;;;;;;;30.17;16.65;;;3.20;99.90;;;;;;5052672;28;20052;-58
2022/01/10 09:38:48;;;;;;;26.20;15.60;;;3.00;99.90;;;;;;5054190;28;20433;-57
2022/01/10 09:41:13;;;;;;;22.75;13.18;;;3.00;99.90;;;;;;5052900;28;20021;-66
2022/01/10 09:43:47;;;;;;;23.23;13.77;;;3.00;99.90;;;;;;5053961;28;20025;-53
2022/01/10 09:46:13;;;;;;;18.98;11.57;;;3.00;99.90;;;;;;5054395;28;20113;-59
2022/01/10 09:48:39;;;;;;;24.65;13.63;;;2.90;99.90;;;;;;5053876;28;20025;-59
2022/01/10 09:51:05;;;;;;;21.38;12.43;;;2.90;99.90;;;;;;5054471;28;20021;-61
2022/01/10 09:53:31;;;;;;;18.77;11.55;;;2.80;99.90;;;;;;5054090;28;20055;-64
2022/01/10 09:55:56;;;;;;;18.83;11.32;;;2.80;99.90;;;;;;5053311;28;20029;-62
2022/01/10 09:58:23;;;;;;;16.25;9.68;;;2.70;99.90;;;;;;5054230;28;20021;-56
2022/01/10 10:00:53;;;;;;;18.92;10.85;;;2.80;99.90;;;;;;5046928;28;20094;-60
2022/01/10 10:03:22;;;;;;;16.23;9.45;;;2.90;99.90;;;;;;5046233;28;20025;-59
2022/01/10 10:05:54;;;;;;;21.75;12.50;;;3.00;99.90;;;;;;5042885;28;20422;-58
2022/01/10 10:08:24;;;;;;;19.63;11.30;;;3.00;99.90;;;;;;5041382;28;20040;-59
2022/01/10 10:10:51;;;;;;;17.98;10.75;;;3.00;99.90;;;;;;5040129;28;20105;-59
2022/01/10 10:13:18;;;;;;;16.92;10.38;;;3.10;99.90;;;;;;5051354;28;20483;-57
2022/01/10 10:15:45;;;;;;;15.85;9.95;;;3.20;99.90;;;;;;5048705;28;20021;-66
2022/01/10 10:18:16;;;;;;;19.75;12.63;;;3.20;99.90;;;;;;5043752;28;20037;-57
2022/01/10 10:20:43;;;;;;;22.52;12.65;;;3.20;99.90;;;;;;5033207;28;20029;-61
2022/01/10 10:23:15;;;;;;;15.75;10.40;;;3.30;99.90;;;;;;5038611;28;20366;-55
2022/01/10 10:25:54;;;;;;;19.25;12.10;;;3.40;98.10;;;;;;5046470;28;20104;-59
2022/01/10 10:28:21;;;;;;;13.88;8.73;;;3.40;99.60;;;;;;5037525;28;20020;-60
2022/01/10 10:30:47;;;;;;;17.10;9.48;;;3.50;97.30;;;;;;5038734;28;20439;-62
2022/01/10 10:33:20;;;;;;;14.88;8.65;;;3.50;97.00;;;;;;5047005;28;20091;-69
2022/01/10 10:36:04;;;;;;;19.27;11.03;;;3.60;98.90;;;;;;5049788;28;20040;-64
2022/01/10 10:38:30;;;;;;;14.48;9.18;;;3.60;98.90;;;;;;5051921;28;20036;-56
2022/01/10 10:41:01;;;;;;;25.70;14.65;;;3.60;98.10;;;;;;5052080;28;20032;-60
2022/01/10 10:43:31;;;;;;;38.20;19.67;;;3.70;98.10;;;;;;5051646;28;20104;-60
2022/01/10 10:46:00;;;;;;;28.77;17.38;;;3.70;97.80;;;;;;5053298;28;20025;-57
2022/01/10 10:48:27;;;;;;;29.35;17.33;;;3.70;98.30;;;;;;5051203;28;20503;-64
2022/01/10 10:50:54;;;;;;;31.60;18.70;;;3.80;98.20;;;;;;5044395;28;20032;-63
2022/01/10 10:53:20;;;;;;;32.08;18.42;;;3.80;99.10;;;;;;5051124;28;20029;-52
2022/01/10 10:55:46;;;;;;;30.30;16.20;;;3.70;99.20;;;;;;5050912;28;20028;-60
2022/01/10 10:58:13;;;;;;;29.40;16.42;;;3.60;99.00;;;;;;5049803;28;20024;-60
2022/01/10 11:00:39;;;;;;;21.20;13.18;;;3.60;99.90;;;;;;5050039;28;20082;-60
2022/01/10 11:03:15;;;;;;;22.00;13.38;;;3.60;99.90;;;;;;5049840;28;20021;-63
2022/01/10 11:05:44;;;;;;;27.73;15.25;;;3.60;99.90;;;;;;5050462;28;20309;-58
2022/01/10 11:08:10;;;;;;;36.28;19.77;;;3.60;99.90;;;;;;5049991;28;20363;-58
2022/01/10 11:10:38;;;;;;;45.20;23.77;;;3.50;99.90;;;;;;5052363;28;20029;-59
2022/01/10 11:13:04;;;;;;;41.47;24.00;;;3.30;99.90;;;;;;5051878;28;20393;-56
2022/01/10 11:15:32;;;;;;;44.53;24.88;;;3.10;99.90;;;;;;5050912;28;20025;-66
2022/01/10 11:18:03;;;;;;;50.92;26.40;;;2.90;99.90;;;;;;5049249;28;20044;-51
2022/01/10 11:20:29;;;;;;;51.50;26.33;;;2.90;99.90;;;;;;5050260;28;20032;-62
2022/01/10 11:22:57;;;;;;;43.53;23.38;;;2.90;99.90;;;;;;5050548;28;20116;-60
2022/01/10 11:25:29;;;;;;;52.47;27.67;;;3.00;99.90;;;;;;5051298;28;20021;-56
2022/01/10 11:27:57;;;;;;;40.42;22.95;;;3.00;99.90;;;;;;5052110;28;20021;-62
2022/01/10 11:30:44;;;;;;;42.97;23.35;;;3.10;99.90;;;;;;5051703;28;20474;-54
2022/01/10 11:33:15;;;;;;;47.05;23.92;;;3.20;99.90;;;;;;5051197;28;20029;-62
2022/01/10 11:35:44;;;;;;;44.08;23.45;;;3.10;99.90;;;;;;5050368;28;20443;-55
2022/01/10 11:38:23;;;;;;;46.47;24.48;;;3.20;99.90;;;;;;5052420;28;20142;-61
2022/01/10 11:41:10;;;;;;;51.60;25.10;;;3.30;99.90;;;;;;5050044;28;20120;-67
2022/01/10 11:43:41;;;;;;;36.67;21.17;;;3.30;99.90;;;;;;5050465;28;20106;-62
2022/01/10 11:46:29;;;;;;;43.25;22.42;;;3.40;99.90;;;;;;5050857;28;20112;-52
2022/01/10 11:49:00;;;;;;;43.75;21.52;;;3.50;99.90;;;;;;5050927;28;20028;-54
2022/01/10 11:51:36;;;;;;;41.03;22.42;;;3.50;99.90;;;;;;5051078;28;20459;-62
2022/01/10 11:54:23;;;;;;;37.55;20.88;;;3.60;99.90;;;;;;5052025;28;20036;-54
2022/01/10 11:56:49;;;;;;;43.70;22.23;;;3.60;99.90;;;;;;5050059;28;20033;-53
2022/01/10 11:59:18;;;;;;;53.42;26.60;;;3.50;99.90;;;;;;5051318;28;20116;-55
2022/01/10 12:01:48;;;;;;;50.90;26.42;;;3.40;99.90;;;;;;5052995;28;20025;-62
2022/01/10 12:04:14;;;;;;;60.08;31.02;;;3.40;99.90;;;;;;5052336;28;20052;-51
2022/01/10 12:06:40;;;;;;;54.05;26.38;;;3.30;99.90;;;;;;5052940;28;20057;-69
2022/01/10 12:09:06;;;;;;;53.60;27.75;;;3.10;99.90;;;;;;5053434;28;20071;-63
2022/01/10 12:11:33;;;;;;;54.75;27.67;;;3.10;99.90;;;;;;5053025;28;20115;-67
2022/01/10 12:14:00;;;;;;;43.75;23.13;;;3.10;99.90;;;;;;5053469;28;20032;-66
2022/01/10 12:16:27;;;;;;;45.13;24.17;;;3.00;99.90;;;;;;5054971;28;20435;-60
2022/01/10 12:18:53;;;;;;;47.67;24.65;;;2.80;99.90;;;;;;5054029;28;20049;-66
2022/01/10 12:21:19;;;;;;;47.58;24.02;;;2.80;99.90;;;;;;5053606;28;20037;-54
2022/01/10 12:23:47;;;;;;;48.90;25.27;;;2.80;99.90;;;;;;5053551;28;20100;-61
2022/01/10 12:26:14;;;;;;;36.88;22.13;;;2.80;99.90;;;;;;5053532;28;20432;-64
2022/01/10 12:28:40;;;;;;;41.50;21.25;;;2.70;99.90;;;;;;5053811;28;20025;-66
2022/01/10 12:31:06;;;;;;;41.72;22.65;;;2.70;99.90;;;;;;5054821;28;20025;-54
2022/01/10 12:33:33;;;;;;;40.65;22.77;;;2.90;99.90;;;;;;5055500;28;20467;-67
2022/01/10 12:36:02;;;;;;;38.20;19.10;;;3.00;99.90;;;;;;5055526;28;20094;-55
2022/01/10 12:38:29;;;;;;;33.88;18.80;;;3.00;99.90;;;;;;5054351;28;20145;-55
2022/01/10 12:40:55;;;;;;;38.10;21.02;;;3.00;99.90;;;;;;5054086;28;20102;-61
2022/01/10 12:43:20;;;;;;;34.28;19.40;;;3.00;99.90;;;;;;5055074;28;20479;-54
2022/01/10 12:45:49;;;;;;;32.53;18.10;;;3.10;99.90;;;;;;5055230;28;20032;-53
2022/01/10 12:48:15;;;;;;;36.25;20.48;;;3.00;99.90;;;;;;5054032;28;20415;-55
2022/01/10 12:50:45;;;;;;;39.40;21.98;;;3.10;99.90;;;;;;5054367;28;20113;-61